createdAt,value
2024-02-29T00:01:58.984Z,97698.69
2024-02-29T00:04:07.519Z,97692.00
2024-02-29T00:06:15.767Z,97691.81
2024-02-29T00:08:23.893Z,97692.81
2024-02-29T00:10:31.982Z,97687.72
2024-02-29T00:12:42.963Z,97689.94
2024-02-29T00:14:50.997Z,97683.88
2024-02-29T00:17:01.524Z,97678.69
2024-02-29T00:19:09.622Z,97666.69
2024-02-29T00:21:17.696Z,97666.97
2024-02-29T00:23:26.025Z,97660.97
2024-02-29T00:25:34.174Z,97660.78
2024-02-29T00:27:44.890Z,97659.88
2024-02-29T00:29:52.856Z,97660.41
2024-02-29T00:32:02.419Z,97657.78
2024-02-29T00:34:10.986Z,97649.44
2024-02-29T00:36:19.712Z,97641.88
2024-02-29T00:38:27.820Z,97650.50
2024-02-29T00:40:35.880Z,97646.63
2024-02-29T00:42:46.884Z,97644.06
2024-02-29T00:44:54.883Z,97632.88
2024-02-29T00:47:03.099Z,97630.78
2024-02-29T00:49:13.618Z,97633.31
2024-02-29T00:51:21.686Z,97625.69
2024-02-29T00:53:29.844Z,97622.41
2024-02-29T00:55:37.901Z,97620.78
2024-02-29T00:57:51.081Z,97613.06
2024-02-29T00:59:59.512Z,97616.47
2024-02-29T01:02:07.919Z,97607.69
2024-02-29T01:04:13.536Z,97607.53
2024-02-29T01:06:21.629Z,97609.88
2024-02-29T01:08:29.513Z,97604.50
2024-02-29T01:10:37.874Z,97601.00
2024-02-29T01:12:46.484Z,97605.06
2024-02-29T01:14:54.855Z,97599.47
2024-02-29T01:17:03.037Z,97595.19
2024-02-29T01:19:11.054Z,97589.31
2024-02-29T01:21:19.290Z,97590.59
2024-02-29T01:23:27.647Z,97587.13
2024-02-29T01:25:37.668Z,97573.72
2024-02-29T01:27:48.375Z,97564.13
2024-02-29T01:29:56.490Z,97564.88
2024-02-29T01:32:12.369Z,97565.69
2024-02-29T01:34:26.625Z,97568.72
2024-02-29T01:36:35.018Z,97559.03
2024-02-29T01:38:43.136Z,97560.91
2024-02-29T01:40:48.718Z,97556.72
2024-02-29T01:42:59.558Z,97546.81
2024-02-29T01:45:08.857Z,97541.44
2024-02-29T01:47:14.517Z,97547.66
2024-02-29T01:49:26.556Z,97545.06
2024-02-29T01:51:36.665Z,97549.50
2024-02-29T01:53:42.666Z,97546.03
2024-02-29T01:55:50.662Z,97541.09
2024-02-29T01:58:04.050Z,97536.50
2024-02-29T02:00:13.485Z,97542.09
2024-02-29T02:02:22.284Z,97535.78
2024-02-29T02:04:30.275Z,97535.97
2024-02-29T02:06:38.272Z,97534.94
2024-02-29T02:08:46.477Z,97529.03
2024-02-29T02:10:54.606Z,97532.31
2024-02-29T02:13:05.444Z,97535.25
2024-02-29T02:15:13.921Z,97529.13
2024-02-29T02:17:23.026Z,97533.72
2024-02-29T02:19:28.256Z,97524.09
2024-02-29T02:21:39.077Z,97519.63
2024-02-29T02:23:46.975Z,97517.06
2024-02-29T02:25:58.912Z,97520.38
2024-02-29T02:28:07.414Z,97512.69
2024-02-29T02:30:16.121Z,97506.94
2024-02-29T02:32:24.276Z,97507.94
2024-02-29T02:34:32.353Z,97509.00
2024-02-29T02:36:43.229Z,97503.16
2024-02-29T02:38:51.373Z,97503.88
2024-02-29T02:40:59.426Z,97487.31
2024-02-29T02:43:07.793Z,97490.03
2024-02-29T02:45:13.613Z,97489.22
2024-02-29T02:47:21.748Z,97480.31
2024-02-29T02:49:29.787Z,97477.28
2024-02-29T02:51:35.094Z,97472.66
2024-02-29T02:53:45.727Z,97471.47
2024-02-29T02:55:53.621Z,97478.63
2024-02-29T02:58:01.721Z,97468.84
2024-02-29T03:00:11.849Z,97463.63
2024-02-29T03:02:20.002Z,97465.72
2024-02-29T03:04:28.048Z,97461.38
2024-02-29T03:06:36.135Z,97451.00
2024-02-29T03:08:44.162Z,97456.88
2024-02-29T03:10:52.234Z,97449.72
2024-02-29T03:13:00.179Z,97447.88
2024-02-29T03:15:09.395Z,97443.44
2024-02-29T03:17:17.440Z,97440.09
2024-02-29T03:19:26.814Z,97443.78
2024-02-29T03:21:34.965Z,97440.22
2024-02-29T03:23:43.136Z,97447.56
2024-02-29T03:25:54.059Z,97443.84
2024-02-29T03:27:59.683Z,97433.22
2024-02-29T03:30:08.601Z,97436.41
2024-02-29T03:32:16.732Z,97436.19
2024-02-29T03:34:25.470Z,97438.94
2024-02-29T03:36:33.611Z,97433.69
2024-02-29T03:38:43.489Z,97430.69
2024-02-29T03:40:54.365Z,97427.22
2024-02-29T03:43:02.826Z,97422.13
2024-02-29T03:45:11.520Z,97418.50
2024-02-29T03:47:20.040Z,97417.28
2024-02-29T03:49:27.915Z,97415.16
2024-02-29T03:51:35.980Z,97414.81
2024-02-29T03:53:43.953Z,97424.66
2024-02-29T03:55:52.127Z,97424.03
2024-02-29T03:58:00.342Z,97427.50
2024-02-29T04:00:12.728Z,97428.50
2024-02-29T04:02:20.804Z,97422.00
2024-02-29T04:04:29.053Z,97428.00
2024-02-29T04:06:37.906Z,97420.88
2024-02-29T04:08:46.375Z,97422.06
2024-02-29T04:10:57.102Z,97424.69
2024-02-29T04:13:05.484Z,97414.50
2024-02-29T04:15:13.918Z,97407.78
2024-02-29T04:17:22.109Z,97406.00
2024-02-29T04:19:30.100Z,97416.47
2024-02-29T04:21:38.047Z,97417.66
2024-02-29T04:23:45.955Z,97409.38
2024-02-29T04:25:56.554Z,97416.72
2024-02-29T04:28:04.434Z,97418.03
2024-02-29T04:30:13.982Z,97404.88
2024-02-29T04:32:22.100Z,97410.13
2024-02-29T04:34:30.585Z,97404.41
2024-02-29T04:36:38.814Z,97401.34
2024-02-29T04:38:46.921Z,97398.75
2024-02-29T04:40:58.514Z,97401.03
2024-02-29T04:43:06.646Z,97401.94
2024-02-29T04:45:15.233Z,97403.91
2024-02-29T04:47:20.836Z,97400.31
2024-02-29T04:49:28.987Z,97406.50
2024-02-29T04:51:37.127Z,97393.25
2024-02-29T04:53:45.240Z,97392.78
2024-02-29T04:55:55.190Z,97390.31
2024-02-29T04:58:05.897Z,97386.88
2024-02-29T05:00:15.338Z,97381.41
2024-02-29T05:02:23.200Z,97381.22
2024-02-29T05:04:31.324Z,97380.19
2024-02-29T05:06:41.221Z,97378.53
2024-02-29T05:08:49.167Z,97378.72
2024-02-29T05:10:57.330Z,97374.75
2024-02-29T05:13:08.332Z,97377.59
2024-02-29T05:15:16.897Z,97372.44
2024-02-29T05:17:25.035Z,97369.66
2024-02-29T05:19:33.051Z,97362.59
2024-02-29T05:21:41.034Z,97361.69
2024-02-29T05:23:49.418Z,97367.34
2024-02-29T05:25:54.788Z,97364.66
2024-02-29T05:28:03.110Z,97367.34
2024-02-29T05:30:16.054Z,97368.13
2024-02-29T05:32:24.012Z,97362.13
2024-02-29T05:34:32.208Z,97357.81
2024-02-29T05:36:40.340Z,97361.50
2024-02-29T05:38:51.656Z,97362.41
2024-02-29T05:41:00.528Z,97357.31
2024-02-29T05:43:09.645Z,97363.88
2024-02-29T05:45:20.330Z,97355.03
2024-02-29T05:47:28.387Z,97356.06
2024-02-29T05:49:36.553Z,97346.75
2024-02-29T05:51:44.782Z,97348.81
2024-02-29T05:53:52.814Z,97349.66
2024-02-29T05:55:58.198Z,97348.31
2024-02-29T05:58:06.242Z,97338.94
2024-02-29T06:00:15.526Z,97335.47
2024-02-29T06:02:26.095Z,97339.22
2024-02-29T06:04:33.978Z,97336.28
2024-02-29T06:06:41.884Z,97336.69
2024-02-29T06:08:50.149Z,97325.13
2024-02-29T06:10:58.136Z,97326.50
2024-02-29T06:13:06.054Z,97321.22
2024-02-29T06:15:13.986Z,97324.06
2024-02-29T06:17:20.967Z,97323.50
2024-02-29T06:19:31.531Z,97328.84
2024-02-29T06:21:39.584Z,97317.44
2024-02-29T06:23:47.705Z,97314.38
2024-02-29T06:25:55.790Z,97309.78
2024-02-29T06:28:03.997Z,97300.28
2024-02-29T06:30:12.956Z,97307.13
2024-02-29T06:32:21.053Z,97298.34
2024-02-29T06:34:32.179Z,97295.25
2024-02-29T06:36:40.212Z,97292.69
2024-02-29T06:38:48.392Z,97293.50
2024-02-29T06:40:56.320Z,97297.56
2024-02-29T06:43:05.207Z,97291.47
2024-02-29T06:45:11.932Z,97293.69
2024-02-29T06:47:22.954Z,97291.91
2024-02-29T06:49:33.434Z,97294.81
2024-02-29T06:51:41.796Z,97290.38
2024-02-29T06:53:49.953Z,97297.66
2024-02-29T06:55:57.997Z,97298.56
2024-02-29T06:58:06.864Z,97297.66
2024-02-29T07:00:16.139Z,97304.97
2024-02-29T07:02:24.275Z,97299.72
2024-02-29T07:04:34.806Z,97296.25
2024-02-29T07:06:43.116Z,97291.03
2024-02-29T07:08:51.251Z,97289.97
2024-02-29T07:11:02.177Z,97291.16
2024-02-29T07:13:10.608Z,97289.16
2024-02-29T07:15:18.668Z,97291.75
2024-02-29T07:17:26.791Z,97295.00
2024-02-29T07:19:37.618Z,97297.84
2024-02-29T07:21:46.060Z,97292.50
2024-02-29T07:23:54.142Z,97292.06
2024-02-29T07:26:05.275Z,97283.75
2024-02-29T07:28:13.260Z,97284.53
2024-02-29T07:30:22.240Z,97279.13
2024-02-29T07:32:30.359Z,97280.75
2024-02-29T07:34:40.903Z,97284.31
2024-02-29T07:36:50.443Z,97285.66
2024-02-29T07:38:58.535Z,97287.75
2024-02-29T07:41:06.745Z,97285.66
2024-02-29T07:43:14.819Z,97287.28
2024-02-29T07:45:22.960Z,97285.91
2024-02-29T07:47:30.933Z,97292.53
2024-02-29T07:49:41.494Z,97297.63
2024-02-29T07:51:52.935Z,97303.06
2024-02-29T07:54:02.689Z,97304.78
2024-02-29T07:56:10.890Z,97309.22
2024-02-29T07:58:20.198Z,97313.69
2024-02-29T08:00:28.346Z,97314.00
2024-02-29T08:02:33.791Z,97310.63
2024-02-29T08:04:44.380Z,97324.50
2024-02-29T08:06:52.589Z,97321.34
2024-02-29T08:09:01.142Z,97324.03
2024-02-29T08:11:09.415Z,97337.84
2024-02-29T08:13:17.517Z,97349.75
2024-02-29T08:15:25.602Z,97364.84
2024-02-29T08:17:33.723Z,97383.72
2024-02-29T08:19:41.887Z,97406.97
2024-02-29T08:21:50.408Z,97422.13
2024-02-29T08:23:58.338Z,97429.69
2024-02-29T08:26:08.555Z,97433.41
2024-02-29T08:28:17.079Z,97449.28
2024-02-29T08:30:25.379Z,97459.50
2024-02-29T08:32:33.430Z,97465.19
2024-02-29T08:34:41.305Z,97475.19
2024-02-29T08:36:51.272Z,97476.25
2024-02-29T08:38:59.864Z,97462.94
2024-02-29T08:41:08.293Z,97463.63
2024-02-29T08:43:20.638Z,97456.59
2024-02-29T08:45:28.586Z,97461.72
2024-02-29T08:47:34.121Z,97474.38
2024-02-29T08:49:42.375Z,97477.19
2024-02-29T08:51:53.111Z,97475.56
2024-02-29T08:53:58.404Z,97476.91
2024-02-29T08:56:06.928Z,97469.53
2024-02-29T08:58:14.902Z,97460.75
2024-02-29T09:00:23.427Z,97454.28
2024-02-29T09:02:33.302Z,97463.94
2024-02-29T09:04:41.822Z,97461.84
2024-02-29T09:06:52.568Z,97465.47
2024-02-29T09:09:00.923Z,97463.34
2024-02-29T09:11:09.651Z,97465.97
2024-02-29T09:13:29.617Z,97473.09
2024-02-29T09:15:43.388Z,97457.44
2024-02-29T09:17:53.570Z,97437.63
2024-02-29T09:19:58.937Z,97430.16
2024-02-29T09:22:10.457Z,97408.84
2024-02-29T09:24:16.354Z,97391.53
2024-02-29T09:26:24.572Z,97389.00
2024-02-29T09:28:32.696Z,97380.41
2024-02-29T09:30:40.945Z,97383.81
2024-02-29T09:32:53.632Z,97369.75
2024-02-29T09:35:01.860Z,97372.78
2024-02-29T09:37:12.892Z,97370.31
2024-02-29T09:39:21.779Z,97368.75
2024-02-29T09:41:49.696Z,97368.47
2024-02-29T09:43:58.243Z,97385.59
2024-02-29T09:46:08.146Z,97388.16
2024-02-29T09:48:18.131Z,97391.66
2024-02-29T09:50:26.264Z,97395.13
2024-02-29T09:52:37.243Z,97399.31
2024-02-29T09:54:47.200Z,97404.19
2024-02-29T09:56:55.736Z,97409.75
2024-02-29T09:59:06.974Z,97417.47
2024-02-29T10:01:15.954Z,97405.19
2024-02-29T10:03:24.311Z,97405.81
2024-02-29T10:05:32.744Z,97402.38
2024-02-29T10:07:46.838Z,97404.47
2024-02-29T10:09:55.238Z,97413.72
2024-02-29T10:12:04.466Z,97427.06
2024-02-29T10:14:23.907Z,97439.31
2024-02-29T10:16:34.432Z,97445.22
2024-02-29T10:18:43.282Z,97441.72
2024-02-29T10:20:51.978Z,97439.41
2024-02-29T10:23:02.923Z,97451.06
2024-02-29T10:25:14.766Z,97441.69
2024-02-29T10:27:23.819Z,97446.59
2024-02-29T10:29:33.518Z,97439.34
2024-02-29T10:31:42.127Z,97442.66
2024-02-29T10:33:52.034Z,97415.72
2024-02-29T10:36:00.638Z,97433.34
2024-02-29T10:38:12.293Z,97441.03
2024-02-29T10:40:18.277Z,97461.25
2024-02-29T10:42:26.896Z,97447.28
2024-02-29T10:44:39.134Z,97435.91
2024-02-29T10:46:51.083Z,97428.34
2024-02-29T10:49:04.977Z,97425.31
2024-02-29T10:51:17.993Z,97433.31
2024-02-29T10:53:40.370Z,97403.38
2024-02-29T10:56:00.421Z,97392.59
2024-02-29T10:58:14.389Z,97376.22
2024-02-29T11:00:22.434Z,97381.81
2024-02-29T11:02:31.241Z,97361.97
2024-02-29T11:04:39.941Z,97370.75
2024-02-29T11:06:50.835Z,97355.38
2024-02-29T11:09:04.435Z,97343.84
2024-02-29T11:11:16.496Z,97328.28
2024-02-29T11:13:25.446Z,97321.78
2024-02-29T11:15:34.718Z,97298.84
2024-02-29T11:17:47.603Z,97295.25
2024-02-29T11:20:10.651Z,97270.72
2024-02-29T11:22:19.287Z,97277.47
2024-02-29T11:24:30.271Z,97277.38
2024-02-29T11:26:39.941Z,97273.09
2024-02-29T11:28:48.114Z,97268.59
2024-02-29T11:30:55.363Z,97274.25
2024-02-29T11:33:11.779Z,97265.50
2024-02-29T11:35:20.233Z,97266.97
2024-02-29T11:37:32.704Z,97258.38
2024-02-29T11:39:45.103Z,97252.78
2024-02-29T11:41:54.011Z,97251.16
2024-02-29T11:44:02.173Z,97243.22
2024-02-29T11:46:11.395Z,97241.59
2024-02-29T11:48:19.610Z,97237.38
2024-02-29T11:50:27.872Z,97234.06
2024-02-29T11:52:35.859Z,97236.16
2024-02-29T11:54:47.190Z,97224.06
2024-02-29T11:56:55.821Z,97218.84
2024-02-29T11:59:08.023Z,97221.53
2024-02-29T12:01:17.330Z,97225.56
2024-02-29T12:03:26.036Z,97216.09
2024-02-29T12:05:36.257Z,97228.59
2024-02-29T12:07:44.313Z,97218.66
2024-02-29T12:09:55.793Z,97225.03
2024-02-29T12:12:06.030Z,97216.94
2024-02-29T12:14:14.863Z,97222.81
2024-02-29T12:16:22.995Z,97220.25
2024-02-29T12:18:31.023Z,97205.81
2024-02-29T12:20:39.472Z,97206.19
2024-02-29T12:22:50.342Z,97206.16
2024-02-29T12:24:58.788Z,97203.81
2024-02-29T12:27:07.885Z,97199.66
2024-02-29T12:29:16.090Z,97191.81
2024-02-29T12:31:24.440Z,97181.41
2024-02-29T12:33:32.969Z,97173.34
2024-02-29T12:35:42.317Z,97163.31
2024-02-29T12:37:50.458Z,97163.22
2024-02-29T12:40:01.755Z,97168.13
2024-02-29T12:42:08.387Z,97172.88
2024-02-29T12:44:16.613Z,97176.69
2024-02-29T12:46:22.164Z,97173.34
2024-02-29T12:48:31.070Z,97163.69
2024-02-29T12:50:39.257Z,97160.19
2024-02-29T12:52:49.929Z,97146.22
2024-02-29T12:55:00.733Z,97157.38
2024-02-29T12:57:11.265Z,97156.19
2024-02-29T12:59:20.703Z,97147.72
2024-02-29T13:01:33.211Z,97143.06
2024-02-29T13:03:38.722Z,97143.91
2024-02-29T13:05:47.178Z,97143.91
2024-02-29T13:07:55.598Z,97142.25
2024-02-29T13:10:04.552Z,97135.97
2024-02-29T13:12:13.294Z,97138.38
2024-02-29T13:14:21.777Z,97132.78
2024-02-29T13:16:30.113Z,97127.56
2024-02-29T13:18:38.361Z,97119.34
2024-02-29T13:20:46.670Z,97122.91
2024-02-29T13:22:54.829Z,97116.59
2024-02-29T13:25:05.510Z,97114.28
2024-02-29T13:27:13.771Z,97115.75
2024-02-29T13:29:22.260Z,97109.59
2024-02-29T13:31:30.343Z,97099.84
2024-02-29T13:33:38.507Z,97106.44
2024-02-29T13:35:46.654Z,97107.41
2024-02-29T13:37:54.946Z,97092.28
2024-02-29T13:40:05.679Z,97090.09
2024-02-29T13:42:13.923Z,97083.81
2024-02-29T13:44:22.028Z,97071.81
2024-02-29T13:46:33.187Z,97072.41
2024-02-29T13:48:44.822Z,97058.84
2024-02-29T13:50:53.754Z,97054.25
2024-02-29T13:53:01.815Z,97050.47
2024-02-29T13:55:13.706Z,97038.81
2024-02-29T13:57:21.927Z,97031.75
2024-02-29T13:59:29.187Z,97033.44
2024-02-29T14:01:37.387Z,97035.81
2024-02-29T14:03:45.404Z,97025.66
2024-02-29T14:05:53.908Z,97018.66
2024-02-29T14:08:00.233Z,97013.84
2024-02-29T14:10:10.375Z,97005.09
2024-02-29T14:12:22.592Z,97004.88
2024-02-29T14:14:30.974Z,97002.94
2024-02-29T14:16:39.056Z,97003.91
2024-02-29T14:18:47.099Z,96998.56
2024-02-29T14:20:52.500Z,96995.31
2024-02-29T14:23:00.452Z,96985.25
2024-02-29T14:25:10.363Z,96985.44
2024-02-29T14:27:22.143Z,96978.03
2024-02-29T14:29:30.317Z,96963.53
2024-02-29T14:31:35.792Z,96963.78
2024-02-29T14:33:44.075Z,96969.56
2024-02-29T14:35:51.993Z,96962.44
2024-02-29T14:38:00.316Z,96960.22
2024-02-29T14:40:12.713Z,96967.75
2024-02-29T14:42:23.761Z,96947.28
2024-02-29T14:44:31.690Z,96956.31
2024-02-29T14:46:39.767Z,96951.00
2024-02-29T14:48:47.978Z,96942.41
2024-02-29T14:50:56.012Z,96950.16
2024-02-29T14:53:04.048Z,96938.16
2024-02-29T14:55:14.607Z,96937.16
2024-02-29T14:57:25.550Z,96934.34
2024-02-29T14:59:34.315Z,96935.63
2024-02-29T15:01:43.252Z,96932.03
2024-02-29T15:03:53.047Z,96926.09
2024-02-29T15:06:01.992Z,96924.31
2024-02-29T15:08:11.915Z,96929.50
2024-02-29T15:10:22.182Z,96920.31
2024-02-29T15:12:32.908Z,96917.31
2024-02-29T15:14:41.055Z,96907.25
2024-02-29T15:16:49.298Z,96908.06
2024-02-29T15:18:54.929Z,96905.53
2024-02-29T15:21:02.855Z,96893.38
2024-02-29T15:23:10.868Z,96888.09
2024-02-29T15:25:17.411Z,96893.31
2024-02-29T15:27:27.464Z,96878.69
2024-02-29T15:29:38.173Z,96874.09
2024-02-29T15:31:46.749Z,96869.50
2024-02-29T15:33:54.880Z,96870.84
2024-02-29T15:36:02.961Z,96869.50
2024-02-29T15:38:09.116Z,96859.50
2024-02-29T15:40:17.266Z,96855.03
2024-02-29T15:42:25.609Z,96853.69
2024-02-29T15:44:33.830Z,96851.63
2024-02-29T15:46:46.375Z,96849.56
2024-02-29T15:48:56.152Z,96836.66
2024-02-29T15:51:04.451Z,96849.09
2024-02-29T15:53:09.716Z,96840.00
2024-02-29T15:55:18.072Z,96840.25
2024-02-29T15:57:26.627Z,96837.72
2024-02-29T15:59:34.736Z,96827.28
2024-02-29T16:01:45.970Z,96824.91
2024-02-29T16:03:51.497Z,96820.91
2024-02-29T16:05:59.792Z,96825.59
2024-02-29T16:08:08.383Z,96816.28
2024-02-29T16:10:16.763Z,96818.78
2024-02-29T16:12:24.875Z,96812.97
2024-02-29T16:14:33.242Z,96813.78
2024-02-29T16:16:41.416Z,96817.06
2024-02-29T16:18:52.222Z,96815.47
2024-02-29T16:21:00.741Z,96814.91
2024-02-29T16:23:08.919Z,96816.94
2024-02-29T16:25:19.576Z,96809.91
2024-02-29T16:27:27.830Z,96806.41
2024-02-29T16:29:35.852Z,96811.19
2024-02-29T16:31:44.114Z,96799.44
2024-02-29T16:33:54.803Z,96794.44
2024-02-29T16:36:03.118Z,96795.66
2024-02-29T16:38:11.122Z,96792.91
2024-02-29T16:40:17.031Z,96792.41
2024-02-29T16:42:25.013Z,96788.72
2024-02-29T16:44:33.268Z,96792.25
2024-02-29T16:46:41.561Z,96787.28
2024-02-29T16:48:49.739Z,96785.69
2024-02-29T16:51:02.119Z,96782.94
2024-02-29T16:53:10.964Z,96786.00
2024-02-29T16:55:19.038Z,96780.63
2024-02-29T16:57:27.305Z,96787.63
2024-02-29T16:59:35.796Z,96777.78
2024-02-29T17:01:45.225Z,96781.63
2024-02-29T17:03:53.331Z,96778.13
2024-02-29T17:06:04.250Z,96780.47
2024-02-29T17:08:12.427Z,96782.41
2024-02-29T17:10:20.730Z,96780.91
2024-02-29T17:12:28.786Z,96773.69
2024-02-29T17:14:36.994Z,96776.25
2024-02-29T17:16:45.000Z,96781.88
2024-02-29T17:18:53.147Z,96785.06
2024-02-29T17:21:03.940Z,96780.16
2024-02-29T17:23:12.107Z,96783.56
2024-02-29T17:25:20.364Z,96785.81
2024-02-29T17:27:28.363Z,96780.38
2024-02-29T17:29:36.680Z,96784.94
2024-02-29T17:31:44.773Z,96780.81
2024-02-29T17:33:53.109Z,96771.72
2024-02-29T17:36:03.927Z,96768.44
2024-02-29T17:38:12.153Z,96765.25
2024-02-29T17:40:20.622Z,96769.38
2024-02-29T17:42:29.766Z,96765.66
2024-02-29T17:44:38.524Z,96760.16
2024-02-29T17:46:47.056Z,96762.59
2024-02-29T17:48:55.253Z,96757.72
2024-02-29T17:51:05.981Z,96756.44
2024-02-29T17:53:14.188Z,96756.00
2024-02-29T17:55:22.985Z,96750.00
2024-02-29T17:57:31.187Z,96736.31
2024-02-29T17:59:40.709Z,96736.31
2024-02-29T18:01:49.661Z,96733.91
2024-02-29T18:03:55.148Z,96730.41
2024-02-29T18:06:06.010Z,96730.28
2024-02-29T18:08:17.987Z,96722.56
2024-02-29T18:10:26.311Z,96724.22
2024-02-29T18:12:34.659Z,96724.53
2024-02-29T18:14:42.871Z,96720.22
2024-02-29T18:16:48.488Z,96722.56
2024-02-29T18:18:56.650Z,96722.41
2024-02-29T18:21:08.262Z,96712.69
2024-02-29T18:23:17.377Z,96714.25
2024-02-29T18:25:26.210Z,96704.94
2024-02-29T18:27:34.426Z,96709.50
2024-02-29T18:29:44.325Z,96712.31
2024-02-29T18:31:54.482Z,96713.03
2024-02-29T18:34:03.454Z,96710.50
2024-02-29T18:36:12.855Z,96708.78
2024-02-29T18:38:20.843Z,96709.84
2024-02-29T18:40:30.289Z,96704.94
2024-02-29T18:42:38.416Z,96704.94
2024-02-29T18:44:46.499Z,96698.66
2024-02-29T18:46:54.788Z,96691.94
2024-02-29T18:49:02.878Z,96696.00
2024-02-29T18:51:11.065Z,96699.28
2024-02-29T18:53:22.136Z,96695.06
2024-02-29T18:55:30.565Z,96694.41
2024-02-29T18:57:36.076Z,96691.59
2024-02-29T18:59:44.271Z,96691.59
2024-02-29T19:01:56.977Z,96683.78
2024-02-29T19:04:05.323Z,96676.06
2024-02-29T19:06:13.525Z,96685.78
2024-02-29T19:08:25.702Z,96684.28
2024-02-29T19:10:34.480Z,96674.78
2024-02-29T19:12:42.621Z,96680.44
2024-02-29T19:14:50.729Z,96669.34
2024-02-29T19:16:59.005Z,96667.72
2024-02-29T19:19:04.900Z,96662.28
2024-02-29T19:21:13.204Z,96665.75
2024-02-29T19:23:24.076Z,96670.38
2024-02-29T19:25:32.332Z,96667.47
2024-02-29T19:27:40.390Z,96661.00
2024-02-29T19:29:51.456Z,96670.09
2024-02-29T19:31:59.520Z,96665.16
2024-02-29T19:34:08.157Z,96654.78
2024-02-29T19:36:18.530Z,96652.06
2024-02-29T19:38:29.175Z,96654.13
2024-02-29T19:40:37.321Z,96643.59
2024-02-29T19:42:45.294Z,96644.16
2024-02-29T19:44:59.370Z,96639.16
2024-02-29T19:47:08.175Z,96632.78
2024-02-29T19:49:16.906Z,96627.97
2024-02-29T19:51:25.133Z,96626.44
2024-02-29T19:53:37.174Z,96633.22
2024-02-29T19:55:46.121Z,96628.06
2024-02-29T19:57:54.226Z,96627.41
2024-02-29T20:00:04.955Z,96628.25
2024-02-29T20:02:20.762Z,96622.97
2024-02-29T20:04:31.011Z,96621.06
2024-02-29T20:06:39.393Z,96624.94
2024-02-29T20:08:50.204Z,96612.97
2024-02-29T20:10:58.338Z,96615.44
2024-02-29T20:13:07.020Z,96618.19
2024-02-29T20:15:16.063Z,96616.47
2024-02-29T20:17:24.356Z,96626.56
2024-02-29T20:19:33.495Z,96622.63
2024-02-29T20:21:44.392Z,96625.53
2024-02-29T20:23:55.144Z,96621.00
2024-02-29T20:26:03.130Z,96615.44
2024-02-29T20:28:11.549Z,96617.41
2024-02-29T20:30:19.730Z,96608.78
2024-02-29T20:32:29.016Z,96608.38
2024-02-29T20:34:37.212Z,96601.41
2024-02-29T20:36:47.034Z,96602.00
2024-02-29T20:38:57.593Z,96606.97
2024-02-29T20:41:06.499Z,96609.59
2024-02-29T20:43:14.522Z,96608.38
2024-02-29T20:45:22.684Z,96604.78
2024-02-29T20:47:31.334Z,96607.94
2024-02-29T20:49:39.323Z,96622.13
2024-02-29T20:51:47.496Z,96615.53
2024-02-29T20:53:58.083Z,96617.41
2024-02-29T20:56:03.682Z,96623.53
2024-02-29T20:58:11.772Z,96616.94
2024-02-29T21:00:17.926Z,96618.47
2024-02-29T21:02:26.340Z,96609.03
2024-02-29T21:04:34.375Z,96612.69
2024-02-29T21:06:42.759Z,96602.47
2024-02-29T21:08:50.706Z,96603.69
2024-02-29T21:11:01.978Z,96604.06
2024-02-29T21:13:14.485Z,96604.78
2024-02-29T21:15:22.904Z,96611.78
2024-02-29T21:17:31.165Z,96611.69
2024-02-29T21:19:36.722Z,96608.94
2024-02-29T21:21:45.329Z,96610.84
2024-02-29T21:23:53.336Z,96619.03
2024-02-29T21:26:04.331Z,96605.38
2024-02-29T21:28:12.549Z,96617.91
2024-02-29T21:30:19.454Z,96608.50
2024-02-29T21:32:28.774Z,96618.75
2024-02-29T21:34:35.782Z,96614.41
2024-02-29T21:36:44.690Z,96603.31
2024-02-29T21:38:56.368Z,96607.75
2024-02-29T21:41:07.359Z,96612.78
2024-02-29T21:43:17.394Z,96603.59
2024-02-29T21:45:25.533Z,96599.63
2024-02-29T21:47:34.048Z,96595.94
2024-02-29T21:49:42.284Z,96589.81
2024-02-29T21:51:50.573Z,96588.50
2024-02-29T21:54:00.801Z,96588.97
2024-02-29T21:56:13.395Z,96585.56
2024-02-29T21:58:22.566Z,96570.88
2024-02-29T22:00:34.524Z,96574.75
2024-02-29T22:02:42.606Z,96563.84
2024-02-29T22:04:50.780Z,96566.97
2024-02-29T22:06:56.317Z,96562.19
2024-02-29T22:09:04.267Z,96560.66
2024-02-29T22:11:15.023Z,96555.88
2024-02-29T22:13:23.092Z,96549.56
2024-02-29T22:15:28.441Z,96546.28
2024-02-29T22:17:36.714Z,96544.75
2024-02-29T22:19:44.785Z,96548.81
2024-02-29T22:21:53.221Z,96542.13
2024-02-29T22:24:01.407Z,96545.78
2024-02-29T22:26:09.446Z,96538.09
2024-02-29T22:28:20.196Z,96530.75
2024-02-29T22:30:29.202Z,96531.88
2024-02-29T22:32:37.652Z,96532.81
2024-02-29T22:34:45.576Z,96526.72
2024-02-29T22:36:53.541Z,96529.53
2024-02-29T22:39:01.733Z,96527.63
2024-02-29T22:41:09.926Z,96524.81
2024-02-29T22:43:21.489Z,96517.31
2024-02-29T22:45:29.557Z,96516.72
2024-02-29T22:47:37.712Z,96514.28
2024-02-29T22:49:45.815Z,96508.09
2024-02-29T22:51:53.797Z,96513.72
2024-02-29T22:54:02.042Z,96517.41
2024-02-29T22:56:07.833Z,96510.41
2024-02-29T22:58:16.300Z,96504.41
2024-02-29T23:00:31.911Z,96509.56
2024-02-29T23:02:41.539Z,96505.72
2024-02-29T23:04:49.533Z,96494.44
2024-02-29T23:06:57.899Z,96490.00
2024-02-29T23:09:05.828Z,96485.03
2024-02-29T23:11:11.165Z,96489.91
2024-02-29T23:13:19.410Z,96483.66
2024-02-29T23:15:30.047Z,96476.25
2024-02-29T23:17:38.360Z,96467.00
2024-02-29T23:19:46.607Z,96465.91
2024-02-29T23:21:54.661Z,96454.44
2024-02-29T23:24:02.616Z,96452.84
2024-02-29T23:26:10.829Z,96458.63
2024-02-29T23:28:19.034Z,96459.03
2024-02-29T23:30:29.526Z,96459.50
2024-02-29T23:32:35.367Z,96458.66
2024-02-29T23:34:43.673Z,96454.41
2024-02-29T23:36:51.956Z,96451.47
2024-02-29T23:38:59.999Z,96461.16
2024-02-29T23:41:08.743Z,96451.31
2024-02-29T23:43:16.905Z,96451.22
2024-02-29T23:45:25.741Z,96451.41
2024-02-29T23:47:36.507Z,96463.50
2024-02-29T23:49:44.478Z,96463.50
2024-02-29T23:51:52.525Z,96460.66
2024-02-29T23:54:01.408Z,96465.47
2024-02-29T23:56:10.189Z,96468.19
2024-02-29T23:58:18.290Z,96468.00
